createdAt,value
2018-11-12T00:00:42.028Z,12.10
2018-11-12T00:03:15.769Z,12.10
2018-11-12T00:05:49.577Z,12.00
2018-11-12T00:08:23.157Z,11.90
2018-11-12T00:10:56.918Z,11.80
2018-11-12T00:13:30.584Z,11.70
2018-11-12T00:16:04.157Z,11.70
2018-11-12T00:18:38.501Z,11.60
2018-11-12T00:21:12.091Z,11.60
2018-11-12T00:23:45.677Z,11.50
2018-11-12T00:26:19.267Z,11.50
2018-11-12T00:28:52.895Z,11.40
2018-11-12T00:31:26.490Z,11.30
2018-11-12T00:34:00.780Z,11.30
2018-11-12T00:36:35.226Z,11.30
2018-11-12T00:39:09.056Z,11.30
2018-11-12T00:41:42.618Z,11.20
2018-11-12T00:44:17.228Z,11.30
2018-11-12T00:46:51.139Z,11.30
2018-11-12T00:49:24.937Z,11.30
2018-11-12T00:51:58.594Z,11.30
2018-11-12T00:54:32.977Z,11.20
2018-11-12T00:57:06.634Z,11.20
2018-11-12T00:59:40.391Z,11.20
2018-11-12T01:02:14.782Z,11.20
2018-11-12T01:04:48.347Z,11.10
2018-11-12T01:07:22.127Z,11.20
2018-11-12T01:09:55.996Z,11.10
2018-11-12T01:12:30.548Z,11.00
2018-11-12T01:15:04.098Z,11.00
2018-11-12T01:17:37.691Z,11.00
2018-11-12T01:20:11.384Z,10.90
2018-11-12T01:22:45.061Z,11.00
2018-11-12T01:25:18.632Z,10.90
2018-11-12T01:27:52.185Z,10.90
2018-11-12T01:30:26.579Z,11.00
2018-11-12T01:33:00.239Z,11.00
2018-11-12T01:35:33.923Z,11.00
2018-11-12T01:38:08.326Z,11.10
2018-11-12T01:40:42.796Z,11.20
2018-11-12T01:43:16.587Z,11.20
2018-11-12T01:45:50.202Z,11.20
2018-11-12T01:48:23.830Z,11.30
2018-11-12T01:50:57.619Z,11.20
2018-11-12T01:53:31.211Z,11.20
2018-11-12T01:56:04.815Z,11.10
2018-11-12T01:58:38.381Z,11.00
2018-11-12T02:01:12.032Z,11.00
2018-11-12T02:03:45.795Z,10.90
2018-11-12T02:06:19.340Z,10.80
2018-11-12T02:08:53.157Z,10.80
2018-11-12T02:11:26.837Z,10.70
2018-11-12T02:14:00.464Z,10.70
2018-11-12T02:16:34.035Z,10.70
2018-11-12T02:19:07.686Z,10.70
2018-11-12T02:21:41.542Z,10.70
2018-11-12T02:24:15.364Z,10.70
2018-11-12T02:26:48.952Z,10.70
2018-11-12T02:29:22.547Z,10.70
2018-11-12T02:31:56.343Z,10.60
2018-11-12T02:34:29.981Z,10.60
2018-11-12T02:37:03.517Z,10.60
2018-11-12T02:39:37.121Z,10.50
2018-11-12T02:42:11.418Z,10.50
2018-11-12T02:44:45.029Z,10.50
2018-11-12T02:47:18.754Z,10.50
2018-11-12T02:49:52.422Z,10.40
2018-11-12T02:52:26.052Z,10.40
2018-11-12T02:54:59.799Z,10.40
2018-11-12T02:57:33.723Z,10.30
2018-11-12T03:00:07.209Z,10.30
2018-11-12T03:02:40.914Z,10.30
2018-11-12T03:05:14.597Z,10.20
2018-11-12T03:07:48.364Z,10.20
2018-11-12T03:10:21.909Z,10.20
2018-11-12T03:12:56.256Z,10.20
2018-11-12T03:15:29.905Z,10.20
2018-11-12T03:18:03.520Z,10.20
2018-11-12T03:20:37.049Z,10.20
2018-11-12T03:23:11.416Z,10.20
2018-11-12T03:25:45.872Z,10.20
2018-11-12T03:28:19.427Z,10.20
2018-11-12T03:30:52.914Z,10.20
2018-11-12T03:33:26.505Z,10.20
2018-11-12T03:36:00.119Z,10.10
2018-11-12T03:38:33.654Z,10.00
2018-11-12T03:41:08.138Z,9.90
2018-11-12T03:43:41.724Z,9.90
2018-11-12T03:46:15.476Z,9.90
2018-11-12T03:48:49.034Z,9.90
2018-11-12T03:51:22.949Z,9.90
2018-11-12T03:53:56.621Z,9.90
2018-11-12T03:56:30.239Z,9.80
2018-11-12T03:59:03.941Z,9.80
2018-11-12T04:01:37.661Z,9.80
2018-11-12T04:04:12.161Z,9.80
2018-11-12T04:06:45.932Z,9.70
2018-11-12T04:09:20.221Z,9.70
2018-11-12T04:11:54.705Z,9.70
2018-11-12T04:14:28.402Z,9.60
2018-11-12T04:17:02.205Z,9.60
2018-11-12T04:19:35.864Z,9.60
2018-11-12T04:22:09.433Z,9.60
2018-11-12T04:24:43.120Z,9.60
2018-11-12T04:27:16.867Z,9.60
2018-11-12T04:29:51.362Z,9.60
2018-11-12T04:32:25.342Z,9.60
2018-11-12T04:34:59.824Z,9.60
2018-11-12T04:37:33.483Z,9.50
2018-11-12T04:40:08.029Z,9.60
2018-11-12T04:42:41.663Z,9.50
2018-11-12T04:45:15.483Z,9.60
2018-11-12T04:47:49.225Z,9.60
2018-11-12T04:50:23.724Z,9.50
2018-11-12T04:52:57.565Z,9.50
2018-11-12T04:55:31.272Z,9.40
2018-11-12T04:58:04.979Z,9.40
2018-11-12T05:00:38.601Z,9.40
2018-11-12T05:03:12.191Z,9.30
2018-11-12T05:05:45.790Z,9.30
2018-11-12T05:08:19.600Z,9.40
2018-11-12T05:10:53.291Z,9.40
2018-11-12T05:13:26.880Z,9.50
2018-11-12T05:16:00.674Z,9.50
2018-11-12T05:18:34.408Z,9.50
2018-11-12T05:21:07.994Z,9.40
2018-11-12T05:23:41.733Z,9.30
2018-11-12T05:26:16.015Z,9.40
2018-11-12T05:28:49.764Z,9.30
2018-11-12T05:31:23.544Z,9.40
2018-11-12T05:33:57.984Z,9.50
2018-11-12T05:36:31.666Z,9.50
2018-11-12T05:39:05.277Z,9.60
2018-11-12T05:41:39.811Z,9.70
2018-11-12T05:44:14.305Z,9.70
2018-11-12T05:46:47.883Z,9.70
2018-11-12T05:49:21.560Z,9.80
2018-11-12T05:51:55.246Z,9.90
2018-11-12T05:54:28.878Z,10.00
2018-11-12T05:57:02.462Z,10.00
2018-11-12T05:59:36.044Z,10.00
2018-11-12T06:02:10.510Z,10.00
2018-11-12T06:04:44.223Z,10.00
2018-11-12T06:07:17.748Z,10.10
2018-11-12T06:09:51.362Z,10.00
2018-11-12T06:12:25.090Z,10.00
2018-11-12T06:14:58.866Z,10.00
2018-11-12T06:17:33.469Z,10.00
2018-11-12T06:20:07.219Z,10.00
2018-11-12T06:22:41.720Z,10.00
2018-11-12T06:25:15.345Z,10.00
2018-11-12T06:27:49.142Z,10.60
2018-11-12T06:30:22.833Z,10.90
2018-11-12T06:32:56.631Z,11.60
2018-11-12T06:35:30.275Z,12.10
2018-11-12T06:38:03.836Z,11.80
2018-11-12T06:40:37.423Z,11.50
2018-11-12T06:43:12.039Z,10.90
2018-11-12T06:45:45.955Z,10.90
2018-11-12T06:48:20.358Z,10.70
2018-11-12T06:50:54.817Z,10.60
2018-11-12T06:53:28.597Z,10.60
2018-11-12T06:56:03.057Z,10.50
2018-11-12T06:58:36.614Z,10.50
2018-11-12T07:01:11.203Z,10.50
2018-11-12T07:03:44.905Z,10.50
2018-11-12T07:06:18.571Z,10.50
2018-11-12T07:08:52.913Z,10.50
2018-11-12T07:11:27.468Z,10.60
2018-11-12T07:14:01.851Z,10.60
2018-11-12T07:16:36.350Z,10.50
2018-11-12T07:19:10.623Z,10.40
2018-11-12T07:21:44.257Z,10.40
2018-11-12T07:24:17.892Z,10.40
2018-11-12T07:26:51.772Z,10.40
2018-11-12T07:29:25.443Z,10.70
2018-11-12T07:31:59.146Z,11.50
2018-11-12T07:34:32.883Z,12.40
2018-11-12T07:37:06.791Z,13.20
2018-11-12T07:39:41.314Z,15.00
2018-11-12T07:42:14.916Z,15.00
2018-11-12T07:44:48.547Z,15.60
2018-11-12T07:47:22.267Z,16.00
2018-11-12T07:49:55.929Z,16.00
2018-11-12T07:52:29.718Z,15.90
2018-11-12T07:55:03.558Z,15.90
2018-11-12T07:57:37.391Z,15.90
2018-11-12T08:00:11.954Z,16.20
2018-11-12T08:02:45.570Z,16.10
2018-11-12T08:05:19.164Z,16.50
2018-11-12T08:07:52.688Z,16.90
2018-11-12T08:10:26.402Z,17.50
2018-11-12T08:13:00.773Z,17.90
2018-11-12T08:15:34.636Z,17.80
2018-11-12T08:18:08.285Z,17.70
2018-11-12T08:20:41.959Z,17.90
2018-11-12T08:23:15.655Z,18.30
2018-11-12T08:25:49.284Z,18.80
2018-11-12T08:28:22.904Z,19.50
2018-11-12T08:30:56.505Z,20.30
2018-11-12T08:33:30.803Z,20.90
2018-11-12T08:36:04.448Z,20.90
2018-11-12T08:38:38.956Z,20.60
2018-11-12T08:41:12.721Z,20.50
2018-11-12T08:43:46.289Z,20.60
2018-11-12T08:46:19.887Z,20.70
2018-11-12T08:48:53.613Z,20.70
2018-11-12T08:51:27.329Z,20.80
2018-11-12T08:54:01.899Z,21.20
2018-11-12T08:56:35.525Z,21.10
2018-11-12T08:59:09.219Z,21.30
2018-11-12T09:01:43.552Z,20.90
2018-11-12T09:04:17.429Z,20.90
2018-11-12T09:06:51.159Z,20.50
2018-11-12T09:09:24.811Z,20.60
2018-11-12T09:11:58.410Z,20.50
2018-11-12T09:14:32.073Z,20.10
2018-11-12T09:17:05.741Z,19.00
2018-11-12T09:19:39.372Z,18.60
2018-11-12T09:22:13.120Z,18.40
2018-11-12T09:24:46.735Z,18.10
2018-11-12T09:27:20.346Z,17.90
2018-11-12T09:29:54.053Z,17.60
2018-11-12T09:32:28.369Z,17.80
2018-11-12T09:35:02.700Z,18.00
2018-11-12T09:37:37.016Z,18.20
2018-11-12T09:40:10.580Z,18.20
2018-11-12T09:42:44.364Z,18.60
2018-11-12T09:45:18.161Z,19.00
2018-11-12T09:47:52.820Z,19.40
2018-11-12T09:50:26.359Z,19.30
2018-11-12T09:53:00.863Z,18.80
2018-11-12T09:55:34.667Z,18.80
2018-11-12T09:58:08.437Z,18.60
2018-11-12T10:00:42.436Z,18.50
2018-11-12T10:03:17.440Z,18.40
2018-11-12T10:05:52.760Z,18.30
2018-11-12T10:08:27.144Z,18.30
2018-11-12T10:11:02.756Z,18.30
2018-11-12T10:13:36.950Z,18.60
2018-11-12T10:16:11.500Z,18.60
2018-11-12T10:18:41.309Z,18.90
2018-11-12T10:21:15.099Z,19.00
2018-11-12T10:23:48.831Z,18.60
2018-11-12T10:26:22.446Z,18.40
2018-11-12T10:28:56.084Z,18.10
2018-11-12T10:31:29.880Z,18.00
2018-11-12T10:34:04.483Z,17.90
2018-11-12T10:36:38.860Z,18.10
2018-11-12T10:39:12.429Z,18.00
2018-11-12T10:41:46.117Z,18.10
2018-11-12T10:44:19.918Z,18.10
2018-11-12T10:46:53.467Z,18.00
2018-11-12T10:49:27.158Z,17.80
2018-11-12T10:52:00.753Z,17.50
2018-11-12T10:54:34.601Z,17.40
2018-11-12T10:57:08.172Z,17.50
2018-11-12T10:59:42.753Z,17.50
2018-11-12T11:02:17.337Z,17.50
2018-11-12T11:04:51.107Z,17.50
2018-11-12T11:07:24.700Z,17.50
2018-11-12T11:09:58.560Z,17.50
2018-11-12T11:12:32.237Z,17.50
2018-11-12T11:15:06.075Z,17.50
2018-11-12T11:17:40.573Z,17.50
2018-11-12T11:20:14.852Z,17.50
2018-11-12T11:22:49.287Z,17.50
2018-11-12T11:25:23.719Z,17.50
2018-11-12T11:27:57.411Z,17.50
2018-11-12T11:30:31.026Z,17.50
2018-11-12T11:33:04.652Z,17.40
2018-11-12T11:35:38.233Z,17.40
2018-11-12T11:38:12.696Z,17.60
2018-11-12T11:40:46.392Z,17.50
2018-11-12T11:43:20.803Z,17.60
2018-11-12T11:45:55.318Z,17.50
2018-11-12T11:48:29.061Z,17.50
2018-11-12T11:51:02.839Z,17.50
2018-11-12T11:53:36.499Z,17.40
2018-11-12T11:56:10.212Z,17.40
2018-11-12T11:58:43.867Z,17.40
2018-11-12T12:01:17.636Z,17.40
2018-11-12T12:03:51.298Z,17.40
2018-11-12T12:06:25.071Z,17.40
2018-11-12T12:08:58.673Z,17.50
2018-11-12T12:11:32.436Z,17.40
2018-11-12T12:14:06.265Z,17.40
2018-11-12T12:16:39.864Z,17.40
2018-11-12T12:19:13.706Z,17.40
2018-11-12T12:21:47.644Z,17.30
2018-11-12T12:24:21.333Z,17.30
2018-11-12T12:26:55.246Z,17.40
2018-11-12T12:29:28.886Z,17.50
2018-11-12T12:32:02.608Z,17.60
2018-11-12T12:34:36.207Z,17.60
2018-11-12T12:37:09.707Z,17.60
2018-11-12T12:39:43.291Z,17.60
2018-11-12T12:42:17.071Z,17.50
2018-11-12T12:44:50.776Z,17.50
2018-11-12T12:47:24.541Z,17.50
2018-11-12T12:49:58.197Z,17.40
2018-11-12T12:52:32.639Z,17.30
2018-11-12T12:55:06.367Z,17.30
2018-11-12T12:57:39.913Z,17.30
2018-11-12T13:00:14.412Z,17.30
2018-11-12T13:02:48.747Z,17.30
2018-11-12T13:05:22.455Z,17.30
2018-11-12T13:07:56.249Z,17.40
2018-11-12T13:10:29.856Z,17.30
2018-11-12T13:13:03.487Z,17.30
2018-11-12T13:15:37.236Z,17.20
2018-11-12T13:18:10.991Z,17.30
2018-11-12T13:20:45.338Z,17.30
2018-11-12T13:23:19.707Z,17.30
2018-11-12T13:25:53.453Z,17.30
2018-11-12T13:28:27.222Z,17.30
2018-11-12T13:31:00.811Z,17.20
2018-11-12T13:33:35.146Z,17.40
2018-11-12T13:36:08.754Z,17.40
2018-11-12T13:38:42.348Z,17.50
2018-11-12T13:41:16.100Z,17.70
2018-11-12T13:43:49.936Z,17.80
2018-11-12T13:46:23.687Z,17.90
2018-11-12T13:48:57.448Z,18.00
2018-11-12T13:51:31.768Z,18.10
2018-11-12T13:54:05.422Z,18.10
2018-11-12T13:56:39.014Z,18.10
2018-11-12T13:59:12.785Z,18.10
2018-11-12T14:01:46.398Z,18.00
2018-11-12T14:04:20.721Z,17.70
2018-11-12T14:06:55.150Z,17.60
2018-11-12T14:09:29.549Z,17.60
2018-11-12T14:12:03.258Z,17.50
2018-11-12T14:14:37.066Z,17.40
2018-11-12T14:17:10.771Z,17.40
2018-11-12T14:19:44.457Z,17.30
2018-11-12T14:22:18.246Z,17.30
2018-11-12T14:24:51.798Z,17.20
2018-11-12T14:27:25.381Z,17.20
2018-11-12T14:29:58.986Z,17.20
2018-11-12T14:32:32.813Z,17.10
2018-11-12T14:35:06.437Z,17.10
2018-11-12T14:37:40.160Z,17.10
2018-11-12T14:40:13.678Z,17.00
2018-11-12T14:42:48.113Z,16.90
2018-11-12T14:45:21.907Z,16.90
2018-11-12T14:47:55.460Z,16.80
2018-11-12T14:50:29.021Z,16.70
2018-11-12T14:53:02.853Z,16.70
2018-11-12T14:55:36.449Z,16.60
2018-11-12T14:58:10.066Z,16.60
2018-11-12T15:00:45.152Z,16.50
2018-11-12T15:03:18.731Z,16.40
2018-11-12T15:05:52.537Z,16.30
2018-11-12T15:08:26.568Z,16.20
2018-11-12T15:11:00.145Z,16.10
2018-11-12T15:13:33.669Z,16.00
2018-11-12T15:16:07.303Z,16.00
2018-11-12T15:18:40.865Z,15.90
2018-11-12T15:21:15.253Z,15.80
2018-11-12T15:23:48.917Z,15.80
2018-11-12T15:26:22.527Z,15.80
2018-11-12T15:28:56.337Z,15.70
2018-11-12T15:31:29.935Z,15.60
2018-11-12T15:34:03.649Z,15.50
2018-11-12T15:36:37.527Z,15.50
2018-11-12T15:39:11.967Z,15.40
2018-11-12T15:41:45.671Z,15.40
2018-11-12T15:44:19.441Z,15.40
2018-11-12T15:46:54.101Z,15.30
2018-11-12T15:49:27.727Z,15.30
2018-11-12T15:52:01.427Z,15.30
2018-11-12T15:54:35.005Z,15.30
2018-11-12T15:57:08.836Z,15.30
2018-11-12T15:59:42.382Z,15.50
2018-11-12T16:02:16.011Z,15.50
2018-11-12T16:04:49.788Z,15.50
2018-11-12T16:07:23.398Z,15.50
2018-11-12T16:09:57.019Z,15.50
2018-11-12T16:12:30.775Z,15.70
2018-11-12T16:15:04.295Z,15.80
2018-11-12T16:17:37.892Z,15.80
2018-11-12T16:20:12.373Z,15.90
2018-11-12T16:22:45.907Z,16.00
2018-11-12T16:25:19.528Z,16.10
2018-11-12T16:27:53.893Z,16.00
2018-11-12T16:30:27.550Z,16.00
2018-11-12T16:33:01.186Z,16.00
2018-11-12T16:35:35.820Z,15.90
2018-11-12T16:38:10.217Z,15.80
2018-11-12T16:40:44.113Z,15.80
2018-11-12T16:43:18.684Z,15.70
2018-11-12T16:45:52.289Z,15.70
2018-11-12T16:48:25.929Z,15.70
2018-11-12T16:51:00.362Z,15.50
2018-11-12T16:53:34.058Z,15.50
2018-11-12T16:56:08.604Z,15.40
2018-11-12T16:58:42.265Z,15.40
2018-11-12T17:01:15.865Z,15.40
2018-11-12T17:03:49.335Z,15.30
2018-11-12T17:06:22.887Z,15.10
2018-11-12T17:08:56.448Z,15.10
2018-11-12T17:11:30.791Z,14.90
2018-11-12T17:14:04.622Z,14.90
2018-11-12T17:16:38.561Z,14.90
2018-11-12T17:19:12.243Z,14.90
2018-11-12T17:21:45.979Z,14.80
2018-11-12T17:24:19.721Z,14.80
2018-11-12T17:26:53.252Z,14.80
2018-11-12T17:29:26.923Z,14.80
2018-11-12T17:45:10.254Z,14.70
2018-11-12T17:47:44.765Z,14.80
2018-11-12T17:50:18.410Z,14.70
2018-11-12T17:52:52.125Z,14.70
2018-11-12T17:55:25.886Z,14.80
2018-11-12T17:58:00.524Z,14.70
2018-11-12T18:00:34.316Z,14.60
2018-11-12T18:03:09.076Z,14.50
2018-11-12T18:05:43.002Z,14.50
2018-11-12T18:08:17.569Z,14.50
2018-11-12T18:10:51.215Z,14.50
2018-11-12T18:13:24.977Z,14.50
2018-11-12T18:15:58.530Z,14.40
2018-11-12T18:18:32.090Z,14.50
2018-11-12T18:21:05.674Z,14.50
2018-11-12T18:23:39.330Z,14.50
2018-11-12T18:26:13.214Z,14.50
2018-11-12T18:28:48.125Z,14.60
2018-11-12T18:31:23.451Z,14.60
2018-11-12T18:33:57.092Z,14.60
2018-11-12T18:36:30.643Z,14.70
2018-11-12T18:39:05.036Z,14.60
2018-11-12T18:41:38.722Z,14.60
2018-11-12T18:44:12.392Z,14.50
2018-11-12T18:46:46.141Z,14.50
2018-11-12T18:49:19.788Z,14.50
2018-11-12T18:51:53.482Z,14.60
2018-11-12T18:54:27.095Z,14.60
2018-11-12T18:57:00.651Z,14.70
2018-11-12T18:59:34.353Z,14.70
2018-11-12T19:02:08.934Z,14.70
2018-11-12T19:04:42.675Z,14.80
2018-11-12T19:07:16.487Z,14.70
2018-11-12T19:09:50.194Z,14.70
2018-11-12T19:12:23.957Z,14.60
2018-11-12T19:14:57.525Z,14.50
2018-11-12T19:17:31.224Z,14.50
2018-11-12T19:20:04.855Z,14.40
2018-11-12T19:22:38.489Z,14.30
2018-11-12T19:25:12.166Z,14.30
2018-11-12T19:27:45.774Z,14.20
2018-11-12T19:30:19.659Z,14.20
2018-11-12T19:32:53.231Z,14.20
2018-11-12T19:35:27.081Z,14.10
2018-11-12T19:38:00.753Z,14.10
2018-11-12T19:40:34.560Z,14.10
2018-11-12T19:43:08.150Z,14.10
2018-11-12T19:45:41.931Z,14.00
2018-11-12T19:48:15.551Z,14.00
2018-11-12T19:50:49.345Z,13.90
2018-11-12T19:53:23.174Z,13.80
2018-11-12T19:55:56.902Z,13.70
2018-11-12T19:58:31.467Z,13.60
2018-11-12T20:01:05.261Z,13.60
2018-11-12T20:03:39.018Z,13.50
2018-11-12T20:06:12.945Z,13.50
2018-11-12T20:08:46.598Z,13.40
2018-11-12T20:11:20.443Z,13.30
2018-11-12T20:13:54.831Z,13.20
2018-11-12T20:16:29.494Z,13.10
2018-11-12T20:19:03.270Z,13.10
2018-11-12T20:21:37.002Z,13.10
2018-11-12T20:24:10.801Z,13.00
2018-11-12T20:26:44.611Z,13.00
2018-11-12T20:29:18.203Z,13.10
2018-11-12T20:31:51.965Z,13.10
2018-11-12T20:34:25.591Z,13.10
2018-11-12T20:36:59.307Z,13.00
2018-11-12T20:39:33.802Z,12.90
2018-11-12T20:42:07.417Z,12.90
2018-11-12T20:44:41.250Z,12.90
2018-11-12T20:47:15.067Z,13.00
2018-11-12T20:49:48.843Z,12.90
2018-11-12T20:52:23.339Z,12.90
2018-11-12T20:54:56.972Z,12.90
2018-11-12T20:57:30.537Z,12.90
2018-11-12T21:00:04.207Z,12.90
2018-11-12T21:02:38.668Z,13.00
2018-11-12T21:05:12.306Z,13.00
2018-11-12T21:07:46.061Z,13.00
2018-11-12T21:10:19.777Z,13.00
2018-11-12T21:12:53.606Z,13.10
2018-11-12T21:15:27.300Z,13.10
2018-11-12T21:18:01.061Z,13.10
2018-11-12T21:20:34.733Z,13.10
2018-11-12T21:23:08.600Z,13.10
2018-11-12T21:25:43.147Z,13.10
2018-11-12T21:28:16.991Z,13.10
2018-11-12T21:30:51.487Z,13.20
2018-11-12T21:33:25.276Z,13.10
2018-11-12T21:35:58.902Z,13.10
2018-11-12T21:38:32.615Z,13.10
2018-11-12T21:41:07.139Z,13.10
2018-11-12T21:43:40.954Z,13.10
2018-11-12T21:46:15.358Z,13.10
2018-11-12T21:48:49.122Z,13.10
2018-11-12T21:51:22.803Z,13.10
2018-11-12T21:53:57.365Z,13.10
2018-11-12T21:56:31.161Z,13.10
2018-11-12T21:59:04.879Z,13.10
2018-11-12T22:01:38.721Z,13.20
2018-11-12T22:04:12.539Z,13.20
2018-11-12T22:06:46.295Z,13.20
2018-11-12T22:09:20.061Z,13.20
2018-11-12T22:11:53.567Z,13.20
2018-11-12T22:14:27.242Z,13.30
2018-11-12T22:17:01.748Z,13.30
2018-11-12T22:19:35.478Z,13.30
2018-11-12T22:22:09.970Z,13.20
2018-11-12T22:24:43.629Z,13.10
2018-11-12T22:27:17.255Z,13.20
2018-11-12T22:29:51.798Z,13.20
2018-11-12T22:32:25.665Z,13.20
2018-11-12T22:34:59.349Z,13.20
2018-11-12T22:37:33.299Z,13.20
2018-11-12T22:40:07.049Z,13.20
2018-11-12T22:42:40.872Z,13.20
2018-11-12T22:45:14.701Z,13.10
2018-11-12T22:47:48.418Z,13.20
2018-11-12T22:50:22.175Z,13.20
2018-11-12T22:52:55.879Z,13.20
2018-11-12T22:55:29.709Z,13.20
2018-11-12T22:58:03.509Z,13.20
2018-11-12T23:00:38.040Z,13.20
2018-11-12T23:03:11.757Z,13.10
2018-11-12T23:05:45.378Z,13.10
2018-11-12T23:08:19.090Z,13.10
2018-11-12T23:10:52.683Z,13.00
2018-11-12T23:13:26.331Z,13.10
2018-11-12T23:16:00.118Z,13.10
2018-11-12T23:18:33.879Z,13.10
2018-11-12T23:21:07.703Z,13.10
2018-11-12T23:23:42.222Z,13.10
2018-11-12T23:26:15.892Z,13.00
2018-11-12T23:28:49.670Z,13.00
2018-11-12T23:31:24.187Z,13.00
2018-11-12T23:33:57.925Z,13.00
2018-11-12T23:36:32.402Z,12.90
2018-11-12T23:39:06.234Z,12.90
2018-11-12T23:41:39.976Z,12.90
2018-11-12T23:44:14.503Z,12.90
2018-11-12T23:46:48.046Z,12.90
2018-11-12T23:49:21.639Z,13.00
2018-11-12T23:51:55.180Z,13.00
2018-11-12T23:54:28.780Z,13.00
2018-11-12T23:57:02.528Z,13.00
2018-11-12T23:59:37.155Z,13.10
